createdAt,value
2023-02-11T00:01:22.272Z,93.30
2023-02-11T00:03:50.038Z,93.40
2023-02-11T00:06:17.938Z,93.30
2023-02-11T00:08:46.003Z,93.10
2023-02-11T00:11:19.186Z,93.40
2023-02-11T00:13:47.458Z,94.20
2023-02-11T00:16:18.354Z,93.80
2023-02-11T00:18:46.732Z,94.00
2023-02-11T00:21:17.083Z,94.30
2023-02-11T00:23:45.945Z,94.30
2023-02-11T00:26:22.903Z,94.90
2023-02-11T00:28:51.933Z,94.40
2023-02-11T00:31:22.058Z,95.10
2023-02-11T00:33:49.831Z,95.20
2023-02-11T00:36:22.463Z,95.10
2023-02-11T00:38:52.068Z,94.80
2023-02-11T00:41:20.368Z,94.30
2023-02-11T00:43:48.484Z,94.80
2023-02-11T00:46:16.463Z,95.00
2023-02-11T00:48:44.292Z,94.80
2023-02-11T00:51:12.150Z,95.50
2023-02-11T00:53:40.595Z,95.50
2023-02-11T00:56:08.316Z,95.90
2023-02-11T00:58:36.848Z,95.60
2023-02-11T01:01:05.678Z,97.80
2023-02-11T01:03:33.825Z,98.00
2023-02-11T01:06:02.214Z,98.30
2023-02-11T01:08:29.921Z,97.70
2023-02-11T01:11:03.572Z,97.70
2023-02-11T01:13:34.001Z,97.10
2023-02-11T01:16:02.015Z,96.90
2023-02-11T01:18:29.634Z,97.20
2023-02-11T01:20:57.265Z,97.40
2023-02-11T01:23:24.861Z,97.60
2023-02-11T01:25:52.869Z,97.50
2023-02-11T01:28:24.833Z,98.60
2023-02-11T01:30:53.815Z,98.60
2023-02-11T01:33:22.663Z,97.30
2023-02-11T01:35:52.236Z,97.70
2023-02-11T01:38:23.431Z,99.30
2023-02-11T01:40:59.430Z,99.70
2023-02-11T01:43:30.736Z,99.80
2023-02-11T01:46:25.018Z,98.70
2023-02-11T01:49:12.871Z,97.60
2023-02-11T01:51:46.455Z,98.30
2023-02-11T01:54:38.597Z,98.90
2023-02-11T01:57:22.187Z,98.00
2023-02-11T02:00:05.231Z,98.20
2023-02-11T02:03:11.594Z,96.60
2023-02-11T02:06:01.967Z,96.80
2023-02-11T02:08:51.495Z,97.20
2023-02-11T02:11:19.335Z,97.90
2023-02-11T02:13:47.279Z,98.80
2023-02-11T02:16:18.833Z,98.60
2023-02-11T02:19:08.689Z,97.80
2023-02-11T02:21:42.307Z,97.40
2023-02-11T02:24:34.637Z,97.10
2023-02-11T02:27:29.556Z,97.30
2023-02-11T02:30:15.799Z,97.80
2023-02-11T02:32:58.217Z,97.30
2023-02-11T02:35:52.409Z,99.90
2023-02-11T02:38:35.647Z,98.70
2023-02-11T02:41:08.177Z,99.10
2023-02-11T02:43:42.830Z,98.70
2023-02-11T02:46:15.250Z,99.20
2023-02-11T02:48:43.790Z,99.30
2023-02-11T02:51:35.771Z,99.70
2023-02-11T02:54:28.333Z,99.90
2023-02-11T02:57:14.734Z,99.10
2023-02-11T02:59:54.300Z,99.30
2023-02-11T03:02:42.414Z,99.10
2023-02-11T03:05:16.159Z,99.90
2023-02-11T03:08:08.522Z,99.90
2023-02-11T03:10:43.337Z,99.90
2023-02-11T03:13:12.879Z,99.20
2023-02-11T03:15:44.709Z,99.90
2023-02-11T03:18:15.893Z,99.90
2023-02-11T03:20:47.591Z,99.90
2023-02-11T03:23:18.728Z,99.90
2023-02-11T03:25:52.942Z,99.90
2023-02-11T03:28:26.953Z,99.90
2023-02-11T03:31:06.945Z,99.90
2023-02-11T03:33:46.003Z,99.90
2023-02-11T03:36:22.942Z,99.90
2023-02-11T03:38:55.991Z,99.90
2023-02-11T03:41:25.302Z,99.90
2023-02-11T03:43:56.989Z,99.90
2023-02-11T03:46:38.039Z,99.90
2023-02-11T03:49:11.185Z,99.90
2023-02-11T03:51:39.453Z,99.50
2023-02-11T03:54:14.244Z,99.90
2023-02-11T03:56:55.896Z,99.90
2023-02-11T03:59:23.560Z,99.90
2023-02-11T04:01:51.463Z,99.90
2023-02-11T04:04:19.477Z,99.90
2023-02-11T04:06:47.107Z,99.90
2023-02-11T04:09:17.477Z,99.90
2023-02-11T04:11:45.097Z,99.90
2023-02-11T04:14:13.008Z,99.90
2023-02-11T04:16:40.620Z,99.90
2023-02-11T04:19:08.236Z,99.90
2023-02-11T04:21:35.808Z,99.90
2023-02-11T04:24:03.633Z,99.90
2023-02-11T04:26:31.223Z,99.90
2023-02-11T04:28:58.808Z,99.90
2023-02-11T04:31:26.603Z,99.90
2023-02-11T04:33:54.493Z,99.90
2023-02-11T04:36:22.127Z,99.90
2023-02-11T04:38:50.335Z,99.90
2023-02-11T04:41:17.963Z,99.90
2023-02-11T04:43:45.649Z,99.90
2023-02-11T04:46:13.624Z,99.90
2023-02-11T04:48:41.261Z,99.90
2023-02-11T04:51:08.836Z,99.90
2023-02-11T04:53:36.422Z,99.90
2023-02-11T04:56:04.278Z,99.90
2023-02-11T04:58:31.999Z,99.90
2023-02-11T05:01:14.969Z,99.90
2023-02-11T05:03:43.210Z,99.90
2023-02-11T05:06:11.119Z,99.90
2023-02-11T05:08:38.803Z,99.90
2023-02-11T05:11:07.684Z,99.90
2023-02-11T05:13:35.304Z,99.90
2023-02-11T05:16:03.056Z,99.90
2023-02-11T05:18:30.607Z,99.90
2023-02-11T05:20:58.299Z,99.90
2023-02-11T05:23:25.855Z,99.90
2023-02-11T05:25:53.695Z,99.90
2023-02-11T05:28:21.334Z,99.90
2023-02-11T05:30:49.070Z,99.90
2023-02-11T05:33:16.670Z,99.90
2023-02-11T05:35:44.315Z,99.90
2023-02-11T05:38:12.038Z,99.90
2023-02-11T05:40:39.665Z,99.90
2023-02-11T05:43:07.460Z,99.90
2023-02-11T05:45:35.207Z,99.90
2023-02-11T05:48:02.849Z,99.90
2023-02-11T05:50:30.482Z,99.90
2023-02-11T05:52:58.527Z,99.90
2023-02-11T05:55:26.581Z,99.90
2023-02-11T05:57:54.244Z,99.90
2023-02-11T06:00:22.062Z,99.90
2023-02-11T06:02:49.748Z,99.90
2023-02-11T06:05:17.500Z,99.90
2023-02-11T06:07:45.453Z,99.90
2023-02-11T06:10:13.477Z,99.90
2023-02-11T06:12:41.066Z,99.90
2023-02-11T06:15:09.067Z,99.90
2023-02-11T06:17:37.481Z,99.90
2023-02-11T06:20:08.704Z,99.90
2023-02-11T06:22:36.372Z,99.90
2023-02-11T06:25:04.429Z,99.90
2023-02-11T06:27:32.289Z,99.90
2023-02-11T06:29:59.918Z,99.90
2023-02-11T06:32:43.895Z,99.90
2023-02-11T06:35:13.861Z,99.90
2023-02-11T06:37:42.247Z,99.90
2023-02-11T06:40:11.614Z,99.90
2023-02-11T06:42:39.683Z,99.90
2023-02-11T06:45:13.092Z,99.90
2023-02-11T06:47:41.547Z,99.90
2023-02-11T06:50:12.878Z,99.90
2023-02-11T06:52:41.625Z,99.90
2023-02-11T06:55:09.407Z,99.90
2023-02-11T06:57:37.092Z,99.90
2023-02-11T07:00:05.925Z,99.90
2023-02-11T07:02:33.662Z,99.90
2023-02-11T07:05:01.378Z,99.90
2023-02-11T07:07:29.125Z,99.90
2023-02-11T07:09:56.758Z,99.90
2023-02-11T07:12:24.370Z,99.90
2023-02-11T07:14:53.052Z,99.90
2023-02-11T07:17:20.668Z,99.90
2023-02-11T07:19:48.254Z,99.90
2023-02-11T07:22:16.110Z,99.90
2023-02-11T07:24:43.736Z,99.90
2023-02-11T07:27:11.425Z,99.90
2023-02-11T07:29:39.072Z,99.90
2023-02-11T07:32:07.190Z,99.90
2023-02-11T07:34:36.094Z,99.90
2023-02-11T07:37:03.837Z,99.90
2023-02-11T07:39:31.423Z,99.90
2023-02-11T07:41:59.910Z,99.90
2023-02-11T07:44:28.029Z,99.90
2023-02-11T07:46:55.650Z,99.90
2023-02-11T07:49:24.347Z,99.90
2023-02-11T07:51:52.004Z,99.90
2023-02-11T07:54:19.852Z,99.90
2023-02-11T07:56:47.646Z,99.90
2023-02-11T07:59:15.352Z,99.90
2023-02-11T08:01:43.067Z,99.90
2023-02-11T08:04:10.789Z,99.90
2023-02-11T08:06:42.490Z,99.90
2023-02-11T08:09:14.827Z,99.90
2023-02-11T08:11:42.726Z,99.90
2023-02-11T08:14:10.538Z,99.90
2023-02-11T08:16:39.445Z,99.90
2023-02-11T08:19:11.771Z,99.90
2023-02-11T08:21:39.857Z,99.90
2023-02-11T08:24:08.352Z,99.90
2023-02-11T08:26:37.640Z,99.90
2023-02-11T08:29:09.490Z,99.90
2023-02-11T08:31:40.344Z,99.90
2023-02-11T08:34:10.058Z,99.90
2023-02-11T08:36:39.264Z,99.90
2023-02-11T08:39:18.724Z,99.90
2023-02-11T08:41:49.829Z,99.90
2023-02-11T08:44:19.711Z,99.90
2023-02-11T08:46:48.422Z,99.90
2023-02-11T08:49:16.568Z,99.90
2023-02-11T08:51:44.737Z,99.90
2023-02-11T08:54:12.491Z,99.90
2023-02-11T08:56:40.354Z,99.60
2023-02-11T08:59:11.768Z,99.90
2023-02-11T09:01:39.568Z,99.90
2023-02-11T09:04:07.424Z,99.40
2023-02-11T09:06:35.151Z,99.30
2023-02-11T09:09:02.855Z,98.70
2023-02-11T09:11:35.767Z,98.10
2023-02-11T09:14:03.950Z,99.90
2023-02-11T09:16:34.210Z,99.90
2023-02-11T09:19:04.303Z,99.90
2023-02-11T09:21:32.201Z,98.40
2023-02-11T09:23:59.800Z,97.20
2023-02-11T09:26:33.001Z,99.10
2023-02-11T09:29:01.770Z,99.90
2023-02-11T09:31:31.071Z,98.90
2023-02-11T09:34:02.022Z,95.90
2023-02-11T09:36:38.988Z,98.20
2023-02-11T09:39:12.120Z,96.50
2023-02-11T09:41:45.929Z,97.30
2023-02-11T09:44:26.101Z,96.80
2023-02-11T09:46:58.681Z,95.80
2023-02-11T09:49:42.971Z,96.10
2023-02-11T09:52:35.281Z,96.30
2023-02-11T09:55:25.062Z,96.70
2023-02-11T09:57:52.754Z,96.50
2023-02-11T10:00:33.099Z,96.20
2023-02-11T10:03:19.262Z,95.20
2023-02-11T10:05:56.899Z,94.20
2023-02-11T10:09:04.185Z,94.70
2023-02-11T10:11:53.381Z,94.30
2023-02-11T10:14:40.365Z,94.00
2023-02-11T10:17:38.580Z,94.60
2023-02-11T10:20:35.023Z,94.20
2023-02-11T10:23:29.179Z,93.50
2023-02-11T10:25:59.064Z,92.70
2023-02-11T10:28:34.060Z,91.50
2023-02-11T10:31:11.955Z,92.40
2023-02-11T10:33:54.400Z,90.80
2023-02-11T10:36:27.330Z,90.70
2023-02-11T10:38:54.898Z,90.80
2023-02-11T10:41:36.537Z,88.40
2023-02-11T10:44:07.162Z,85.60
2023-02-11T10:46:40.326Z,81.40
2023-02-11T10:49:08.105Z,80.60
2023-02-11T10:51:35.786Z,78.40
2023-02-11T10:54:13.854Z,79.80
2023-02-11T10:56:46.542Z,81.30
2023-02-11T10:59:31.461Z,78.60
2023-02-11T11:02:06.142Z,78.30
2023-02-11T11:04:34.291Z,77.70
2023-02-11T11:07:29.152Z,80.10
2023-02-11T11:10:18.840Z,79.60
2023-02-11T11:12:46.435Z,80.10
2023-02-11T11:15:26.942Z,79.80
2023-02-11T11:18:23.299Z,81.20
2023-02-11T11:21:01.030Z,79.70
2023-02-11T11:23:30.578Z,79.80
2023-02-11T11:26:17.018Z,75.80
2023-02-11T11:28:50.727Z,76.40
2023-02-11T11:31:45.662Z,76.40
2023-02-11T11:34:32.825Z,74.90
2023-02-11T11:37:09.772Z,76.40
2023-02-11T11:39:37.574Z,73.60
2023-02-11T11:42:24.148Z,74.20
2023-02-11T11:45:01.012Z,75.60
2023-02-11T11:48:12.802Z,74.50
2023-02-11T11:50:47.516Z,71.30
2023-02-11T11:53:27.261Z,74.10
2023-02-11T11:56:04.001Z,74.80
2023-02-11T11:58:33.101Z,76.10
2023-02-11T12:01:25.757Z,74.90
2023-02-11T12:04:11.953Z,76.50
2023-02-11T12:07:05.020Z,77.60
2023-02-11T12:10:04.712Z,76.10
2023-02-11T12:12:50.572Z,76.50
2023-02-11T12:15:30.633Z,75.70
2023-02-11T12:18:10.640Z,78.40
2023-02-11T12:20:53.835Z,76.70
2023-02-11T12:23:30.613Z,76.30
2023-02-11T12:26:06.358Z,76.30
2023-02-11T12:28:57.101Z,75.70
2023-02-11T12:31:49.416Z,78.10
2023-02-11T12:34:42.474Z,74.90
2023-02-11T12:37:38.093Z,76.70
2023-02-11T12:40:36.832Z,76.60
2023-02-11T12:43:25.084Z,78.10
2023-02-11T12:46:11.715Z,75.40
2023-02-11T12:48:39.632Z,75.20
2023-02-11T12:51:38.443Z,78.50
2023-02-11T12:54:40.327Z,75.80
2023-02-11T12:57:26.614Z,77.50
2023-02-11T12:59:59.452Z,73.90
2023-02-11T13:02:36.585Z,73.90
2023-02-11T13:05:27.695Z,77.60
2023-02-11T13:08:22.238Z,76.40
2023-02-11T13:11:00.111Z,76.40
2023-02-11T13:13:37.423Z,75.20
2023-02-11T13:16:12.676Z,74.40
2023-02-11T13:18:45.529Z,71.60
2023-02-11T13:21:16.516Z,72.20
2023-02-11T13:24:07.612Z,73.40
2023-02-11T13:26:50.732Z,74.90
2023-02-11T13:29:33.580Z,74.60
2023-02-11T13:32:16.337Z,74.80
2023-02-11T13:34:44.468Z,74.00
2023-02-11T13:37:23.222Z,75.20
2023-02-11T13:39:59.633Z,74.90
2023-02-11T13:42:29.121Z,75.50
2023-02-11T13:44:57.954Z,78.30
2023-02-11T13:47:31.115Z,73.10
2023-02-11T13:50:01.370Z,72.70
2023-02-11T13:52:32.834Z,72.20
2023-02-11T13:55:23.520Z,72.60
2023-02-11T13:58:06.549Z,72.60
2023-02-11T14:00:34.909Z,73.00
2023-02-11T14:03:30.386Z,72.90
2023-02-11T14:06:29.279Z,72.40
2023-02-11T14:09:10.167Z,73.60
2023-02-11T14:11:41.742Z,73.30
2023-02-11T14:14:21.898Z,74.40
2023-02-11T14:17:01.552Z,75.20
2023-02-11T14:19:38.946Z,75.10
2023-02-11T14:22:13.814Z,76.30
2023-02-11T14:24:48.589Z,75.40
2023-02-11T14:27:38.903Z,73.20
2023-02-11T14:30:08.044Z,74.00
2023-02-11T14:32:46.396Z,76.40
2023-02-11T14:36:00.728Z,75.40
2023-02-11T14:38:54.023Z,74.00
2023-02-11T14:41:26.348Z,75.10
2023-02-11T14:44:00.773Z,78.80
2023-02-11T14:46:35.749Z,76.80
2023-02-11T14:49:05.552Z,75.30
2023-02-11T14:51:41.437Z,73.20
2023-02-11T14:54:19.669Z,73.30
2023-02-11T14:56:48.323Z,73.90
2023-02-11T14:59:19.448Z,71.60
2023-02-11T15:01:55.631Z,77.50
2023-02-11T15:04:30.137Z,72.60
2023-02-11T15:07:03.676Z,71.60
2023-02-11T15:09:46.164Z,73.40
2023-02-11T15:12:23.827Z,74.90
2023-02-11T15:14:55.899Z,78.40
2023-02-11T15:17:30.741Z,75.70
2023-02-11T15:20:02.626Z,75.90
2023-02-11T15:22:36.886Z,76.30
2023-02-11T15:25:14.104Z,75.50
2023-02-11T15:27:51.308Z,76.10
2023-02-11T15:30:22.452Z,73.40
2023-02-11T15:33:00.742Z,74.70
2023-02-11T15:35:35.602Z,79.70
2023-02-11T15:38:05.236Z,76.50
2023-02-11T15:40:37.764Z,80.60
2023-02-11T15:43:09.815Z,77.90
2023-02-11T15:45:59.491Z,77.60
2023-02-11T15:48:34.093Z,74.10
2023-02-11T15:51:15.575Z,80.00
2023-02-11T15:53:45.138Z,77.60
2023-02-11T15:56:24.298Z,81.70
2023-02-11T15:58:55.178Z,79.90
2023-02-11T16:01:40.382Z,82.30
2023-02-11T16:04:17.802Z,79.30
2023-02-11T16:06:49.266Z,81.90
2023-02-11T16:09:18.235Z,78.40
2023-02-11T16:11:53.769Z,78.90
2023-02-11T16:14:30.004Z,81.90
2023-02-11T16:17:25.367Z,80.00
2023-02-11T16:19:56.590Z,80.20
2023-02-11T16:22:36.596Z,80.70
2023-02-11T16:25:05.889Z,81.30
2023-02-11T16:27:42.864Z,80.50
2023-02-11T16:30:38.185Z,79.90
2023-02-11T16:33:07.874Z,78.80
2023-02-11T16:35:38.330Z,81.50
2023-02-11T16:38:07.070Z,81.30
2023-02-11T16:40:36.354Z,80.40
2023-02-11T16:43:05.061Z,82.00
2023-02-11T16:45:39.940Z,81.10
2023-02-11T16:48:10.289Z,80.70
2023-02-11T16:50:41.086Z,81.50
2023-02-11T16:53:14.580Z,82.60
2023-02-11T16:55:44.107Z,82.30
2023-02-11T16:58:12.093Z,84.40
2023-02-11T17:00:41.150Z,82.30
2023-02-11T17:03:13.572Z,82.50
2023-02-11T17:05:54.667Z,83.20
2023-02-11T17:08:24.154Z,84.10
2023-02-11T17:10:53.357Z,87.60
2023-02-11T17:13:22.111Z,85.20
2023-02-11T17:15:51.439Z,82.80
2023-02-11T17:18:20.502Z,83.30
2023-02-11T17:20:49.760Z,84.70
2023-02-11T17:23:18.102Z,84.20
2023-02-11T17:25:46.825Z,84.40
2023-02-11T17:28:16.964Z,83.80
2023-02-11T17:30:45.712Z,82.60
2023-02-11T17:33:14.491Z,83.70
2023-02-11T17:35:43.474Z,86.60
2023-02-11T17:38:11.532Z,84.20
2023-02-11T17:40:40.938Z,85.10
2023-02-11T17:43:09.861Z,85.10
2023-02-11T17:45:42.181Z,82.60
2023-02-11T17:48:10.357Z,83.30
2023-02-11T17:50:38.434Z,83.00
2023-02-11T17:53:07.367Z,85.20
2023-02-11T17:55:38.723Z,84.70
2023-02-11T17:58:07.427Z,84.00
2023-02-11T18:00:35.742Z,85.90
2023-02-11T18:03:04.814Z,86.20
2023-02-11T18:05:37.462Z,85.00
2023-02-11T18:08:06.603Z,84.80
2023-02-11T18:10:36.940Z,85.30
2023-02-11T18:13:05.878Z,84.50
2023-02-11T18:15:35.218Z,85.40
2023-02-11T18:18:05.391Z,85.10
2023-02-11T18:20:34.098Z,85.40
2023-02-11T18:23:02.883Z,87.30
2023-02-11T18:25:36.313Z,86.70
2023-02-11T18:28:06.685Z,86.20
2023-02-11T18:30:37.094Z,85.40
2023-02-11T18:33:08.966Z,85.40
2023-02-11T18:35:42.429Z,85.00
2023-02-11T18:38:11.177Z,85.40
2023-02-11T18:40:41.235Z,84.40
2023-02-11T18:43:10.128Z,83.30
2023-02-11T18:45:44.202Z,82.60
2023-02-11T18:48:12.895Z,84.80
2023-02-11T18:50:42.472Z,83.60
2023-02-11T18:53:12.491Z,84.10
2023-02-11T18:55:46.864Z,83.60
2023-02-11T18:58:15.992Z,83.90
2023-02-11T19:00:47.681Z,85.50
2023-02-11T19:03:16.760Z,83.00
2023-02-11T19:05:50.017Z,83.90
2023-02-11T19:08:19.986Z,84.00
2023-02-11T19:11:04.407Z,83.70
2023-02-11T19:13:32.993Z,83.90
2023-02-11T19:16:05.416Z,83.60
2023-02-11T19:18:34.493Z,83.40
2023-02-11T19:21:13.319Z,84.60
2023-02-11T19:23:43.153Z,82.40
2023-02-11T19:26:12.213Z,83.50
2023-02-11T19:28:40.716Z,82.90
2023-02-11T19:31:10.588Z,82.70
2023-02-11T19:33:40.980Z,83.90
2023-02-11T19:36:16.404Z,83.10
2023-02-11T19:38:45.813Z,82.70
2023-02-11T19:41:19.780Z,83.90
2023-02-11T19:43:54.583Z,84.40
2023-02-11T19:46:28.450Z,84.90
2023-02-11T19:48:57.383Z,85.70
2023-02-11T19:51:26.312Z,86.00
2023-02-11T19:53:55.273Z,86.10
2023-02-11T19:56:27.988Z,86.80
2023-02-11T19:58:59.128Z,87.70
2023-02-11T20:01:27.649Z,87.50
2023-02-11T20:04:00.458Z,88.00
2023-02-11T20:09:17.521Z,88.40
2023-02-11T20:11:47.571Z,88.40
2023-02-11T20:14:16.401Z,89.20
2023-02-11T20:16:48.675Z,89.40
2023-02-11T20:19:21.938Z,90.00
2023-02-11T20:21:53.808Z,90.10
2023-02-11T20:24:23.333Z,90.30
2023-02-11T20:26:56.282Z,90.40
2023-02-11T20:29:26.077Z,90.50
2023-02-11T20:32:02.292Z,90.90
2023-02-11T20:34:31.529Z,91.00
2023-02-11T20:37:00.195Z,91.20
2023-02-11T20:39:29.117Z,91.30
2023-02-11T20:41:58.498Z,91.20
2023-02-11T20:44:27.443Z,91.30
2023-02-11T20:46:58.395Z,91.60
2023-02-11T20:49:28.892Z,91.80
2023-02-11T20:51:59.011Z,92.10
2023-02-11T20:54:29.157Z,92.00
2023-02-11T20:56:58.907Z,92.00
2023-02-11T20:59:28.287Z,92.20
2023-02-11T21:01:58.245Z,92.20
2023-02-11T21:04:30.911Z,92.20
2023-02-11T21:07:06.216Z,92.30
2023-02-11T21:09:35.641Z,92.40
2023-02-11T21:12:04.133Z,92.70
2023-02-11T21:14:32.998Z,92.70
2023-02-11T21:17:01.609Z,92.80
2023-02-11T21:19:30.081Z,93.20
2023-02-11T21:22:01.231Z,93.40
2023-02-11T21:24:31.413Z,93.60
2023-02-11T21:27:00.131Z,93.40
2023-02-11T21:29:29.290Z,93.80
2023-02-11T21:31:58.144Z,93.70
2023-02-11T21:34:31.837Z,93.80
2023-02-11T21:37:00.641Z,93.90
2023-02-11T21:39:33.872Z,94.60
2023-02-11T21:42:03.418Z,94.10
2023-02-11T21:44:35.436Z,94.60
2023-02-11T21:47:06.426Z,94.80
2023-02-11T21:49:35.644Z,95.30
2023-02-11T21:52:04.070Z,95.30
2023-02-11T21:54:33.129Z,95.60
2023-02-11T21:57:03.502Z,95.90
2023-02-11T21:59:32.507Z,95.90
2023-02-11T22:02:01.190Z,95.80
2023-02-11T22:04:29.182Z,96.80
2023-02-11T22:06:57.080Z,96.90
2023-02-11T22:09:25.313Z,97.10
2023-02-11T22:11:54.132Z,97.90
2023-02-11T22:14:22.369Z,98.00
2023-02-11T22:16:50.805Z,98.30
2023-02-11T22:19:19.010Z,98.80
2023-02-11T22:21:47.072Z,99.20
2023-02-11T22:24:14.944Z,99.60
2023-02-11T22:26:42.656Z,99.90
2023-02-11T22:29:11.172Z,99.90
2023-02-11T22:31:39.539Z,99.90
2023-02-11T22:34:07.539Z,99.90
2023-02-11T22:36:38.005Z,99.90
2023-02-11T22:39:08.664Z,99.90
2023-02-11T22:41:38.373Z,99.90
2023-02-11T22:44:06.414Z,99.90
2023-02-11T22:46:34.824Z,99.90
2023-02-11T22:49:02.480Z,99.90
2023-02-11T22:51:30.783Z,99.90
2023-02-11T22:54:01.649Z,99.90
2023-02-11T22:56:30.946Z,99.90
2023-02-11T22:59:03.654Z,99.90
2023-02-11T23:01:32.081Z,99.90
2023-02-11T23:04:01.225Z,99.90
2023-02-11T23:06:28.875Z,99.90
2023-02-11T23:08:56.636Z,99.90
2023-02-11T23:11:27.147Z,99.90
2023-02-11T23:13:55.095Z,99.90
2023-02-11T23:16:31.945Z,99.90
2023-02-11T23:19:02.171Z,99.90
2023-02-11T23:21:32.523Z,99.90
2023-02-11T23:24:02.865Z,99.90
2023-02-11T23:26:30.958Z,99.90
2023-02-11T23:29:17.312Z,99.90
2023-02-11T23:31:46.611Z,99.90
2023-02-11T23:34:20.412Z,99.90
2023-02-11T23:36:48.087Z,99.90
2023-02-11T23:39:17.176Z,99.90
2023-02-11T23:41:45.571Z,99.90
2023-02-11T23:44:13.193Z,99.90
2023-02-11T23:46:40.879Z,99.90
2023-02-11T23:49:08.556Z,99.90
2023-02-11T23:51:36.181Z,99.90
2023-02-11T23:54:03.913Z,99.90
2023-02-11T23:56:31.807Z,99.90
2023-02-11T23:58:59.536Z,99.90
